Super Jet — IINO — position and weather

sailwx.info

Track history (hours):
 
Tides and Currents Weather Stations Pressure Air Temp Water Temp Dewpoint Dewpoint Depression Visibility Wind Speed Wind Dir Waves Ship Positions

Super Jet

Last reported at 2017-Jun-25 10:01 UTC. Time now 2017-Jun-25 10:22 UTC.
Position N 40°42' E 014°17'.

Length 45 m; draft 1.2 m.

Type: High speed craft. MMSI: 247540000.

Date/timePositionNaut miles runAvg speedWind from/ knotsBaromVisibWave heightAir tempDewpointWater temp
2017-Jun-25 10:01N 40°42' E 014°17'8 5.1
2017-Jun-25 08:27N 40°50' E 014°15'919.9
2017-Jun-25 08:01N 40°41' E 014°17'610.5
2017-Jun-25 07:24N 40°35' E 014°16'1025.5
2017-Jun-25 07:01N 40°45' E 014°16'5 7.4
2017-Jun-25 06:19N 40°50' E 014°15'0 0.0
2017-Jun-25 06:00N 40°50' E 014°15'1019.7
2017-Jun-25 05:30N 40°41' E 014°21'4 0.9
2017-Jun-25 01:07N 40°38' E 014°23'0 0.0
2017-Jun-25 01:01N 40°38' E 014°23'0 0.0
2017-Jun-25 00:26N 40°38' E 014°23'0 0.0
2017-Jun-24 23:59N 40°38' E 014°23'0 0.0
2017-Jun-24 19:43N 40°38' E 014°23'0 0.0
2017-Jun-24 19:30N 40°38' E 014°23'0 0.0
2017-Jun-24 19:00N 40°38' E 014°23'0 0.0
2017-Jun-24 18:31N 40°38' E 014°23'0 0.0
2017-Jun-24 18:00N 40°38' E 014°23'0 0.0
2017-Jun-24 17:30N 40°38' E 014°23'0 0.2
2017-Jun-24 17:00N 40°38' E 014°23'1326.5
2017-Jun-24 16:30N 40°50' E 014°16'1 1.2
2017-Jun-24 15:59N 40°50' E 014°15'816.1
2017-Jun-24 15:31N 40°43' E 014°16'1 0.6
2017-Jun-24 14:00N 40°43' E 014°17'7 5.0
2017-Jun-24 12:32N 40°50' E 014°15'0 0.8
2017-Jun-24 12:30N 40°50' E 014°15'1020.8
2017-Jun-24 12:01N 40°40' E 014°16'5 3.1
2017-Jun-24 10:25N 40°35' E 014°16'1024.3
2017-Jun-24 10:00N 40°45' E 014°17'5 3.1
2017-Jun-24 08:21N 40°50' E 014°15'618.4
2017-Jun-24 08:00N 40°44' E 014°17'6 3.2
2017-Jun-24 06:06N 40°50' E 014°15'0 0.0
2017-Jun-24 06:00N 40°50' E 014°15'1020.4
2017-Jun-24 05:31N 40°41' E 014°21'4 0.3
2017-Jun-23 19:21N 40°38' E 014°23'0 0.0
2017-Jun-23 19:00N 40°38' E 014°23'0 0.0
2017-Jun-23 18:30N 40°38' E 014°23'0 0.0
2017-Jun-23 18:00N 40°38' E 014°23'0 0.0
2017-Jun-23 17:30N 40°38' E 014°23'0 0.2
2017-Jun-23 17:01N 40°38' E 014°23'1325.1
2017-Jun-23 16:29N 40°50' E 014°16'0 0.5
2017-Jun-23 15:55N 40°50' E 014°15'3 8.2
2017-Jun-23 15:30N 40°47' E 014°17'1223.4
2017-Jun-23 15:00N 40°35' E 014°15'8 7.8
2017-Jun-23 14:00N 40°43' E 014°17'7 5.0
2017-Jun-23 12:33N 40°50' E 014°15'0 0.8
2017-Jun-23 12:30N 40°50' E 014°15'1020.6
2017-Jun-23 12:00N 40°40' E 014°16'7 5.3
2017-Jun-23 10:44N 40°33' E 014°14'2 6.5
2017-Jun-23 10:26N 40°35' E 014°16'1022.9
2017-Jun-23 10:00N 40°45' E 014°17'6 9.8
2017-Jun-23 09:26N 40°50' E 014°15'715.5
2017-Jun-23 09:00N 40°44' E 014°16'1015.6
2017-Jun-23 08:21N 40°33' E 014°14'3 8.6
2017-Jun-23 07:56N 40°36' E 014°18'4 9.8
2017-Jun-23 07:30N 40°38' E 014°23'4 5.4
2017-Jun-23 06:46N 40°36' E 014°18'7694124.6
2017-Jun-23 06:35N 50°52' E 003°19'76910068.0
2017-Jun-23 06:30N 40°38' E 014°23'811.2
2017-Jun-23 05:49N 40°33' E 014°14'516.7
2017-Jun-23 05:31N 40°37' E 014°19'769733.9
2017-Jun-23 04:28N 50°58' E 003°29'2 4.7
2017-Jun-23 03:59N 50°60' E 003°32'3 5.2
2017-Jun-23 03:30N 51°02' E 003°33'2 5.1
2017-Jun-23 03:00N 51°05' E 003°34'2 3.5
2017-Jun-23 02:30N 51°05' E 003°36'2 4.3
2017-Jun-23 02:00N 51°05' E 003°40'0 0.2
2017-Jun-23 01:30N 51°05' E 003°40'0 0.0
2017-Jun-23 01:00N 51°05' E 003°40'0 0.0
2017-Jun-23 00:30N 51°05' E 003°40'0 0.0
2017-Jun-23 00:00N 51°05' E 003°40'0 0.0
2017-Jun-22 23:30N 51°05' E 003°40'0 0.0
2017-Jun-22 23:00N 51°05' E 003°40'0 0.0
2017-Jun-22 22:30N 51°05' E 003°40'0 0.0
2017-Jun-22 22:00N 51°05' E 003°40'0 0.0
2017-Jun-22 21:30N 51°05' E 003°40'7715387.8
2017-Jun-22 21:22N 40°38' E 014°23'7712157.6
2017-Jun-22 21:00N 51°05' E 003°40'771231226.2
2017-Jun-22 21:00N 40°38' E 014°23'7711561.5
2017-Jun-22 20:30N 51°05' E 003°40'0 0.0
2017-Jun-22 20:00N 51°05' E 003°40'7712285.6
2017-Jun-22 19:40N 40°38' E 014°23'0 0.0
2017-Jun-22 19:30N 40°38' E 014°23'771693602.7
2017-Jun-22 19:30N 51°05' E 003°40'7711545.6
2017-Jun-22 19:00N 40°38' E 014°23'770396186.4
2017-Jun-22 19:00N 51°06' E 003°43'3 5.2
2017-Jun-22 18:30N 51°08' E 003°46'770693208.2
2017-Jun-22 18:30N 40°38' E 014°23'0 0.0
2017-Jun-22 18:00N 40°38' E 014°23'772106887.7
2017-Jun-22 18:00N 51°11' E 003°48'7721566.6
2017-Jun-22 17:30N 40°38' E 014°23'7756561.8
2017-Jun-22 17:23N 51°15' E 003°49'7742036.4
2017-Jun-22 17:00N 40°38' E 014°23'77622354.7
2017-Jun-22 16:58N 51°18' E 003°50'7631641.6
2017-Jun-22 16:31N 40°50' E 014°16'765110202.7
2017-Jun-22 16:30N 51°20' E 003°49'0 0.9
2017-Jun-22 16:00N 51°20' E 003°49'765459193.9
2017-Jun-22 16:00N 40°50' E 014°15'917.4
2017-Jun-22 15:31N 40°42' E 014°16'772278026.9
2017-Jun-22 15:30N 51°22' E 003°54'5 9.1
2017-Jun-22 15:00N 51°25' E 003°58'7801336.2
2017-Jun-22 14:25N 40°33' E 014°14'7813456.0
2017-Jun-22 14:11N 51°28' E 004°00'767486.3
2017-Jun-22 12:37N 40°50' E 014°15'0 2.0
2017-Jun-22 12:30N 40°50' E 014°16'1121.8
2017-Jun-22 12:01N 40°39' E 014°16'778180.4
2017-Jun-22 07:42N 51°46' E 004°38'0 0.0
2017-Jun-22 07:30N 51°46' E 004°38'2 3.2
2017-Jun-22 07:00N 51°48' E 004°37'3 5.3
2017-Jun-22 06:30N 51°49' E 004°34'7724171.5
2017-Jun-22 06:18N 40°50' E 014°15'7742557.8
2017-Jun-22 06:00N 51°50' E 004°30'77455709.9
2017-Jun-22 06:00N 40°50' E 014°15'7751599.6
2017-Jun-22 05:30N 51°50' E 004°26'3 5.1
2017-Jun-22 05:00N 51°51' E 004°22'2 4.5
2017-Jun-22 04:30N 51°53' E 004°20'2 4.4
2017-Jun-22 04:00N 51°53' E 004°16'0 0.3
2017-Jun-22 03:30N 51°54' E 004°16'0 0.0
2017-Jun-22 03:00N 51°54' E 004°16'1 1.5
2017-Jun-22 02:30N 51°53' E 004°16'0 0.0
2017-Jun-22 02:00N 51°53' E 004°16'0 0.0
2017-Jun-22 01:30N 51°53' E 004°16'0 0.0
2017-Jun-22 01:00N 51°53' E 004°16'0 0.0
2017-Jun-22 00:30N 51°53' E 004°16'0 0.0
2017-Jun-22 00:00N 51°53' E 004°16'0 0.0
2017-Jun-21 23:30N 51°53' E 004°16'0 0.0
2017-Jun-21 23:00N 51°53' E 004°16'0 0.0
2017-Jun-21 22:30N 51°53' E 004°16'0 0.0
2017-Jun-21 22:00N 51°53' E 004°16'0 0.0
2017-Jun-21 21:30N 51°53' E 004°16'2 4.0
2017-Jun-21 21:00N 51°53' E 004°19'4 8.6
2017-Jun-21 20:30N 51°51' E 004°24'5 9.4
2017-Jun-21 20:01N 51°50' E 004°32'7871759.8
2017-Jun-21 19:34N 40°38' E 014°23'78214824.4
2017-Jun-21 19:31N 51°47' E 004°38'7822816636.6
2017-Jun-21 19:31N 40°38' E 014°23'0 0.0
2017-Jun-21 19:00N 40°38' E 014°23'781147927.5
2017-Jun-21 19:00N 51°42' E 004°29'7811586.1
2017-Jun-21 18:31N 40°38' E 014°23'781702655.7
2017-Jun-21 18:30N 51°42' E 004°29'7811565.8
2017-Jun-21 18:01N 40°38' E 014°23'0 0.0
2017-Jun-21 17:31N 40°38' E 014°23'0 0.5
2017-Jun-21 17:01N 40°38' E 014°23'1312.4
2017-Jun-21 15:56N 40°50' E 014°15'818.9
2017-Jun-21 15:30N 40°42' E 014°16'9 8.0
2017-Jun-21 14:24N 40°34' E 014°15'7853259.3
2017-Jun-21 14:10N 51°32' E 003°60'5 7.4
2017-Jun-21 13:30N 51°27' E 004°01'3 5.4
2017-Jun-21 13:00N 51°25' E 003°58'7661661.2
2017-Jun-21 12:32N 40°50' E 014°15'76422551.9
2017-Jun-21 12:30N 51°22' E 003°55'764152855.1
2017-Jun-21 12:30N 40°50' E 014°15'1020.3
2017-Jun-21 12:00N 40°40' E 014°17'774557561.2
2017-Jun-21 12:00N 51°21' E 003°50'2 3.9
2017-Jun-21 11:30N 51°19' E 003°50'4 8.3
2017-Jun-21 11:00N 51°15' E 003°49'4 8.6
2017-Jun-21 10:30N 51°10' E 003°48'4 8.4
2017-Jun-21 10:01N 51°07' E 003°45'2 3.9
2017-Jun-21 09:30N 51°06' E 003°42'0 0.0
2017-Jun-21 09:00N 51°06' E 003°42'0 0.0
2017-Jun-21 08:30N 51°06' E 003°42'7702961.0
2017-Jun-21 08:15N 40°35' E 014°16'624.5
2017-Jun-21 08:01N 40°41' E 014°17'765275547.5
2017-Jun-21 08:00N 51°06' E 003°42'0 0.0
2017-Jun-21 07:30N 51°06' E 003°42'0 0.0
2017-Jun-21 07:00N 51°06' E 003°42'0 0.0
2017-Jun-21 06:30N 51°06' E 003°42'7572272.5
2017-Jun-21 06:10N 40°50' E 014°15'7574602.5
2017-Jun-21 06:00N 51°06' E 003°42'75715659.1
2017-Jun-21 05:57N 40°50' E 014°15'7571670.6
2017-Jun-21 05:30N 51°06' E 003°42'0 0.0
2017-Jun-21 05:00N 51°06' E 003°42'0 0.0
2017-Jun-21 04:30N 51°06' E 003°42'0 0.0
2017-Jun-21 04:00N 51°06' E 003°42'0 0.0
2017-Jun-21 03:30N 51°06' E 003°42'0 0.0
2017-Jun-21 03:00N 51°06' E 003°42'0 0.0
2017-Jun-21 02:30N 51°06' E 003°42'0 0.0
2017-Jun-21 02:00N 51°06' E 003°42'0 0.0
2017-Jun-21 01:30N 51°06' E 003°42'0 0.0
2017-Jun-21 01:00N 51°06' E 003°42'0 0.0
2017-Jun-21 00:30N 51°06' E 003°42'0 0.0
2017-Jun-21 00:00N 51°06' E 003°42'0 0.0
2017-Jun-20 23:30N 51°06' E 003°42'0 0.0
2017-Jun-20 23:00N 51°06' E 003°42'0 0.0
2017-Jun-20 22:30N 51°06' E 003°42'0 0.0
2017-Jun-20 22:00N 51°06' E 003°42'7706346.5
2017-Jun-20 21:53N 40°38' E 014°23'0 0.0
2017-Jun-20 21:30N 40°38' E 014°23'77084043.3
2017-Jun-20 21:30N 51°06' E 003°42'0 0.0
2017-Jun-20 21:00N 51°06' E 003°42'770346678.5
2017-Jun-20 21:00N 40°38' E 014°23'0 0.0
2017-Jun-20 20:30N 40°38' E 014°23'770924476.2
2017-Jun-20 20:30N 51°06' E 003°42'0 0.0
2017-Jun-20 20:00N 51°06' E 003°42'770346679.2
2017-Jun-20 20:00N 40°38' E 014°23'0 0.0
2017-Jun-20 19:30N 40°38' E 014°23'770213340.9
2017-Jun-20 19:30N 51°06' E 003°42'0 0.0
2017-Jun-20 19:00N 51°06' E 003°42'77074957.5
2017-Jun-20 19:00N 40°38' E 014°23'0 0.0
2017-Jun-20 18:30N 40°38' E 014°23'770198102.2
2017-Jun-20 18:30N 51°06' E 003°42'0 0.0
2017-Jun-20 18:00N 51°06' E 003°42'770396204.1
2017-Jun-20 18:00N 40°38' E 014°23'0 0.0
2017-Jun-20 17:30N 40°38' E 014°23'7701386715.6
2017-Jun-20 17:30N 51°06' E 003°42'7701548.0
2017-Jun-20 17:01N 40°39' E 014°23'770277098.5
2017-Jun-20 17:00N 51°06' E 003°42'0 0.0
2017-Jun-20 16:30N 51°06' E 003°42'7572025.8
2017-Jun-20 16:08N 40°50' E 014°15'7576003.9
2017-Jun-20 16:00N 51°05' E 003°40'75735404.5
2017-Jun-20 15:59N 40°50' E 014°16'919.7
2017-Jun-20 15:31N 40°41' E 014°17'766250672.4
2017-Jun-20 15:30N 51°05' E 003°40'0 0.1
2017-Jun-20 15:00N 51°05' E 003°40'3 5.9
2017-Jun-20 14:30N 51°06' E 003°35'7723018.6
2017-Jun-20 14:15N 40°35' E 014°16'1519.8
2017-Jun-20 13:30N 40°50' E 014°15'75668056.6
2017-Jun-20 13:30N 50°60' E 003°32'767483.7
2017-Jun-20 11:54N 40°37' E 014°16'2 1.2
2017-Jun-20 10:26N 40°35' E 014°16'1022.9
2017-Jun-20 09:59N 40°46' E 014°17'4 2.7
2017-Jun-20 08:20N 40°50' E 014°17'927.6
2017-Jun-20 08:00N 40°41' E 014°16'6 7.9
2017-Jun-20 07:18N 40°35' E 014°16'825.3
2017-Jun-20 07:00N 40°43' E 014°17'4 2.8
2017-Jun-20 05:42N 40°46' E 014°18'9 1.4
2017-Jun-19 23:12N 40°38' E 014°23'0 0.0
2017-Jun-19 23:00N 40°38' E 014°23'0 0.0
2017-Jun-19 20:59N 40°38' E 014°23'0 0.0
2017-Jun-19 19:21N 40°38' E 014°23'0 0.0
2017-Jun-19 18:54N 40°38' E 014°23'77075.0
2017-Jun-19 08:39N 51°00' E 003°32'1 5.4
2017-Jun-19 08:30N 51°01' E 003°33'3 5.3
2017-Jun-19 08:00N 51°03' E 003°34'2 4.6
2017-Jun-19 07:30N 51°06' E 003°34'3 5.4
2017-Jun-19 07:00N 51°06' E 003°38'1 2.2
2017-Jun-19 06:28N 51°05' E 003°40'0 0.7
2017-Jun-19 06:00N 51°05' E 003°41'2 4.1
2017-Jun-19 05:30N 51°06' E 003°44'3 6.2
2017-Jun-19 05:00N 51°09' E 003°47'4 6.5
2017-Jun-19 04:27N 51°12' E 003°48'3 6.3
2017-Jun-19 03:59N 51°15' E 003°49'3 6.1
2017-Jun-19 03:30N 51°18' E 003°50'2 4.6
2017-Jun-19 03:00N 51°20' E 003°49'1 1.3
2017-Jun-19 02:30N 51°21' E 003°50'4 8.1
2017-Jun-19 02:00N 51°22' E 003°56'4 8.4
2017-Jun-19 01:30N 51°26' E 003°59'1 3.0
2017-Jun-19 01:00N 51°27' E 004°01'0 0.0
2017-Jun-18 17:49N 51°27' E 004°01'0 0.0
2017-Jun-18 17:24N 51°27' E 004°01'0 1.1
2017-Jun-18 16:58N 51°27' E 004°01'2 4.5
2017-Jun-18 16:27N 51°30' E 004°00'3 6.4
2017-Jun-18 16:00N 51°32' E 003°59'77527.9
2017-Jun-17 12:13N 40°47' E 014°17'1027.6
2017-Jun-17 11:51N 40°37' E 014°15'10 1.7
2017-Jun-17 05:42N 40°46' E 014°18'77093.8
2017-Jun-16 21:30N 51°43' E 004°37'0 0.0
2017-Jun-16 21:00N 51°43' E 004°37'3 7.1
2017-Jun-16 20:30N 51°47' E 004°38'3 6.7
2017-Jun-16 20:00N 51°50' E 004°40'4 8.0
2017-Jun-16 19:30N 51°53' E 004°37'2 4.9
2017-Jun-16 19:00N 51°54' E 004°41'7868578.3
2017-Jun-16 18:55N 40°38' E 014°23'7861925.6
2017-Jun-16 18:30N 51°55' E 004°45'3 5.9
2017-Jun-16 17:59N 51°56' E 004°50'4 6.2
2017-Jun-16 17:24N 51°57' E 004°55'772956.8
2017-Jun-16 16:36N 40°49' E 014°17'2 3.3
2017-Jun-16 15:59N 40°50' E 014°15'77028573.8
2017-Jun-16 15:58N 52°01' E 005°07'1 2.8
2017-Jun-16 15:30N 52°02' E 005°07'77936410.6
2017-Jun-16 15:29N 40°42' E 014°16'7821623.4
2017-Jun-16 15:00N 52°05' E 005°05'3 5.8
2017-Jun-16 14:30N 52°08' E 005°03'7 5.8
2017-Jun-16 13:23N 52°14' E 005°01'3 6.5
2017-Jun-16 12:59N 52°17' E 005°01'3 6.3
2017-Jun-16 12:30N 52°20' E 005°01'3 6.2
2017-Jun-16 12:00N 52°22' E 004°57'3 5.4
2017-Jun-16 11:30N 52°23' E 004°54'2 3.3
2017-Jun-16 11:00N 52°24' E 004°52'0 0.0
2017-Jun-16 10:30N 52°24' E 004°52'0 0.0
2017-Jun-16 10:00N 52°24' E 004°52'0 0.1
2017-Jun-16 09:30N 52°25' E 004°52'0 0.3
2017-Jun-16 09:00N 52°24' E 004°52'0 0.1
2017-Jun-16 08:30N 52°24' E 004°52'0 0.0
2017-Jun-16 08:00N 52°24' E 004°52'0 0.0
2017-Jun-16 07:30N 52°24' E 004°52'0 0.0
2017-Jun-16 07:00N 52°24' E 004°52'0 0.0
2017-Jun-16 06:30N 52°24' E 004°52'0 0.0
2017-Jun-16 06:00N 52°24' E 004°52'8002333.6
2017-Jun-16 05:40N 40°46' E 014°18'8005188.5
2017-Jun-16 05:30N 52°24' E 004°52'0 0.0
2017-Jun-16 05:00N 52°24' E 004°52'0 0.0
2017-Jun-16 04:30N 52°24' E 004°52'0 0.0
2017-Jun-16 04:00N 52°24' E 004°52'0 0.0
2017-Jun-16 03:30N 52°24' E 004°52'0 0.0
2017-Jun-16 03:00N 52°24' E 004°52'0 0.0
2017-Jun-16 02:30N 52°24' E 004°52'0 0.0
2017-Jun-16 02:00N 52°24' E 004°52'0 0.0
2017-Jun-16 01:30N 52°24' E 004°52'0 0.0
2017-Jun-16 01:00N 52°24' E 004°52'0 0.0
2017-Jun-16 00:30N 52°24' E 004°52'0 0.0
2017-Jun-16 00:00N 52°24' E 004°52'0 0.0
2017-Jun-15 23:30N 52°24' E 004°52'80916261.1
2017-Jun-15 23:27N 40°38' E 014°23'0 0.0
2017-Jun-15 23:00N 40°38' E 014°23'8091455371.5
2017-Jun-15 23:00N 52°24' E 004°52'0 0.0
2017-Jun-15 22:30N 52°24' E 004°52'8096630.4
2017-Jun-15 22:23N 40°38' E 014°23'0 0.0
2017-Jun-15 22:00N 40°38' E 014°23'809242561.7
2017-Jun-15 22:00N 52°24' E 004°52'8091627.9
2017-Jun-15 21:30N 40°38' E 014°23'809242562.0
2017-Jun-15 21:30N 52°24' E 004°52'8091627.9
2017-Jun-15 21:00N 40°38' E 014°23'809132306.6
2017-Jun-15 21:00N 52°24' E 004°52'8091637.1
2017-Jun-15 20:30N 40°38' E 014°23'8091455371.5
2017-Jun-15 20:30N 52°24' E 004°52'8091618.9
2017-Jun-15 20:00N 40°38' E 014°23'809264613.1
2017-Jun-15 20:00N 52°24' E 004°52'8091626.1
2017-Jun-15 19:30N 40°38' E 014°23'809264613.0
2017-Jun-15 19:30N 52°24' E 004°52'8091627.9
2017-Jun-15 19:00N 40°38' E 014°23'809264603.1
2017-Jun-15 19:00N 52°24' E 004°52'8091626.1
2017-Jun-15 18:30N 40°38' E 014°23'8062901264.3
2017-Jun-15 18:30N 52°23' E 004°55'4 7.7
2017-Jun-15 18:00N 52°20' E 005°00'4 8.3
2017-Jun-15 17:30N 52°16' E 005°01'7961275.9
2017-Jun-15 16:53N 40°41' E 014°22'1028.1
2017-Jun-15 16:31N 40°50' E 014°16'7774577.7
2017-Jun-15 16:20N 52°07' E 005°04'3 8.0
2017-Jun-15 16:00N 52°05' E 005°05'77456857.4
2017-Jun-15 15:59N 40°50' E 014°15'815.7
2017-Jun-15 15:31N 40°43' E 014°17'777699534.7
2017-Jun-15 15:30N 52°01' E 005°07'1 2.5
2017-Jun-15 14:55N 51°60' E 005°05'6 7.0
2017-Jun-15 14:00N 51°57' E 004°56'4 7.5
2017-Jun-15 13:30N 51°56' E 004°50'7722405.7
2017-Jun-15 13:11N 40°50' E 014°15'7724432.6
2017-Jun-15 13:00N 51°54' E 004°44'77216065.2
2017-Jun-15 12:57N 40°50' E 014°15'0 0.1
2017-Jun-15 12:30N 40°50' E 014°15'77157844.8
2017-Jun-15 12:30N 51°51' E 004°39'7811607.2
2017-Jun-15 12:00N 40°40' E 014°16'7801403132.6
2017-Jun-15 12:00N 51°50' E 004°40'611.7
2017-Jun-15 11:30N 51°44' E 004°38'  
Track history (hours):
 
Tides and Currents Weather Stations Pressure Air Temp Water Temp Dewpoint Dewpoint Depression Visibility Wind Speed Wind Dir Waves Ship Positions

Super Jet

Last reported at 2017-Jun-25 10:01 UTC. Time now 2017-Jun-25 10:22 UTC.
Position N 40°42' E 014°17'.

Length 45 m; draft 1.2 m.

Type: High speed craft. MMSI: 247540000.

Date/timePositionNaut miles runAvg speedWind from/ knotsBaromVisibWave heightAir tempDewpointWater temp
2017-Jun-25 10:01N 40°42' E 014°17'8 5.1
2017-Jun-25 08:27N 40°50' E 014°15'919.9
2017-Jun-25 08:01N 40°41' E 014°17'610.5
2017-Jun-25 07:24N 40°35' E 014°16'1025.5
2017-Jun-25 07:01N 40°45' E 014°16'5 7.4
2017-Jun-25 06:19N 40°50' E 014°15'0 0.0
2017-Jun-25 06:00N 40°50' E 014°15'1019.7
2017-Jun-25 05:30N 40°41' E 014°21'4 0.9
2017-Jun-25 01:07N 40°38' E 014°23'0 0.0
2017-Jun-25 01:01N 40°38' E 014°23'0 0.0
2017-Jun-25 00:26N 40°38' E 014°23'0 0.0
2017-Jun-24 23:59N 40°38' E 014°23'0 0.0
2017-Jun-24 19:43N 40°38' E 014°23'0 0.0
2017-Jun-24 19:30N 40°38' E 014°23'0 0.0
2017-Jun-24 19:00N 40°38' E 014°23'0 0.0
2017-Jun-24 18:31N 40°38' E 014°23'0 0.0
2017-Jun-24 18:00N 40°38' E 014°23'0 0.0
2017-Jun-24 17:30N 40°38' E 014°23'0 0.2
2017-Jun-24 17:00N 40°38' E 014°23'1326.5
2017-Jun-24 16:30N 40°50' E 014°16'1 1.2
2017-Jun-24 15:59N 40°50' E 014°15'816.1
2017-Jun-24 15:31N 40°43' E 014°16'1 0.6
2017-Jun-24 14:00N 40°43' E 014°17'7 5.0
2017-Jun-24 12:32N 40°50' E 014°15'0 0.8
2017-Jun-24 12:30N 40°50' E 014°15'1020.8
2017-Jun-24 12:01N 40°40' E 014°16'5 3.1
2017-Jun-24 10:25N 40°35' E 014°16'1024.3
2017-Jun-24 10:00N 40°45' E 014°17'5 3.1
2017-Jun-24 08:21N 40°50' E 014°15'618.4
2017-Jun-24 08:00N 40°44' E 014°17'6 3.2
2017-Jun-24 06:06N 40°50' E 014°15'0 0.0
2017-Jun-24 06:00N 40°50' E 014°15'1020.4
2017-Jun-24 05:31N 40°41' E 014°21'4 0.3
2017-Jun-23 19:21N 40°38' E 014°23'0 0.0
2017-Jun-23 19:00N 40°38' E 014°23'0 0.0
2017-Jun-23 18:30N 40°38' E 014°23'0 0.0
2017-Jun-23 18:00N 40°38' E 014°23'0 0.0
2017-Jun-23 17:30N 40°38' E 014°23'0 0.2
2017-Jun-23 17:01N 40°38' E 014°23'1325.1
2017-Jun-23 16:29N 40°50' E 014°16'0 0.5
2017-Jun-23 15:55N 40°50' E 014°15'3 8.2
2017-Jun-23 15:30N 40°47' E 014°17'1223.4
2017-Jun-23 15:00N 40°35' E 014°15'8 7.8
2017-Jun-23 14:00N 40°43' E 014°17'7 5.0
2017-Jun-23 12:33N 40°50' E 014°15'0 0.8
2017-Jun-23 12:30N 40°50' E 014°15'1020.6
2017-Jun-23 12:00N 40°40' E 014°16'7 5.3
2017-Jun-23 10:44N 40°33' E 014°14'2 6.5
2017-Jun-23 10:26N 40°35' E 014°16'1022.9
2017-Jun-23 10:00N 40°45' E 014°17'6 9.8
2017-Jun-23 09:26N 40°50' E 014°15'715.5
2017-Jun-23 09:00N 40°44' E 014°16'1015.6
2017-Jun-23 08:21N 40°33' E 014°14'3 8.6
2017-Jun-23 07:56N 40°36' E 014°18'4 9.8
2017-Jun-23 07:30N 40°38' E 014°23'4 5.4
2017-Jun-23 06:46N 40°36' E 014°18'7694124.6
2017-Jun-23 06:35N 50°52' E 003°19'76910068.0
2017-Jun-23 06:30N 40°38' E 014°23'811.2
2017-Jun-23 05:49N 40°33' E 014°14'516.7
2017-Jun-23 05:31N 40°37' E 014°19'769733.9
2017-Jun-23 04:28N 50°58' E 003°29'2 4.7
2017-Jun-23 03:59N 50°60' E 003°32'3 5.2
2017-Jun-23 03:30N 51°02' E 003°33'2 5.1
2017-Jun-23 03:00N 51°05' E 003°34'2 3.5
2017-Jun-23 02:30N 51°05' E 003°36'2 4.3
2017-Jun-23 02:00N 51°05' E 003°40'0 0.2
2017-Jun-23 01:30N 51°05' E 003°40'0 0.0
2017-Jun-23 01:00N 51°05' E 003°40'0 0.0
2017-Jun-23 00:30N 51°05' E 003°40'0 0.0
2017-Jun-23 00:00N 51°05' E 003°40'0 0.0
2017-Jun-22 23:30N 51°05' E 003°40'0 0.0
2017-Jun-22 23:00N 51°05' E 003°40'0 0.0
2017-Jun-22 22:30N 51°05' E 003°40'0 0.0
2017-Jun-22 22:00N 51°05' E 003°40'0 0.0
2017-Jun-22 21:30N 51°05' E 003°40'7715387.8
2017-Jun-22 21:22N 40°38' E 014°23'7712157.6
2017-Jun-22 21:00N 51°05' E 003°40'771231226.2
2017-Jun-22 21:00N 40°38' E 014°23'7711561.5
2017-Jun-22 20:30N 51°05' E 003°40'0 0.0
2017-Jun-22 20:00N 51°05' E 003°40'7712285.6
2017-Jun-22 19:40N 40°38' E 014°23'0 0.0
2017-Jun-22 19:30N 40°38' E 014°23'771693602.7
2017-Jun-22 19:30N 51°05' E 003°40'7711545.6
2017-Jun-22 19:00N 40°38' E 014°23'770396186.4
2017-Jun-22 19:00N 51°06' E 003°43'3 5.2
2017-Jun-22 18:30N 51°08' E 003°46'770693208.2
2017-Jun-22 18:30N 40°38' E 014°23'0 0.0
2017-Jun-22 18:00N 40°38' E 014°23'772106887.7
2017-Jun-22 18:00N 51°11' E 003°48'7721566.6
2017-Jun-22 17:30N 40°38' E 014°23'7756561.8
2017-Jun-22 17:23N 51°15' E 003°49'7742036.4
2017-Jun-22 17:00N 40°38' E 014°23'77622354.7
2017-Jun-22 16:58N 51°18' E 003°50'7631641.6
2017-Jun-22 16:31N 40°50' E 014°16'765110202.7
2017-Jun-22 16:30N 51°20' E 003°49'0 0.9
2017-Jun-22 16:00N 51°20' E 003°49'765459193.9
2017-Jun-22 16:00N 40°50' E 014°15'917.4
2017-Jun-22 15:31N 40°42' E 014°16'772278026.9
2017-Jun-22 15:30N 51°22' E 003°54'5 9.1
2017-Jun-22 15:00N 51°25' E 003°58'7801336.2
2017-Jun-22 14:25N 40°33' E 014°14'7813456.0
2017-Jun-22 14:11N 51°28' E 004°00'767486.3
2017-Jun-22 12:37N 40°50' E 014°15'0 2.0
2017-Jun-22 12:30N 40°50' E 014°16'1121.8
2017-Jun-22 12:01N 40°39' E 014°16'778180.4
2017-Jun-22 07:42N 51°46' E 004°38'0 0.0
2017-Jun-22 07:30N 51°46' E 004°38'2 3.2
2017-Jun-22 07:00N 51°48' E 004°37'3 5.3
2017-Jun-22 06:30N 51°49' E 004°34'7724171.5
2017-Jun-22 06:18N 40°50' E 014°15'7742557.8
2017-Jun-22 06:00N 51°50' E 004°30'77455709.9
2017-Jun-22 06:00N 40°50' E 014°15'7751599.6
2017-Jun-22 05:30N 51°50' E 004°26'3 5.1
2017-Jun-22 05:00N 51°51' E 004°22'2 4.5
2017-Jun-22 04:30N 51°53' E 004°20'2 4.4
2017-Jun-22 04:00N 51°53' E 004°16'0 0.3
2017-Jun-22 03:30N 51°54' E 004°16'0 0.0
2017-Jun-22 03:00N 51°54' E 004°16'1 1.5
2017-Jun-22 02:30N 51°53' E 004°16'0 0.0
2017-Jun-22 02:00N 51°53' E 004°16'0 0.0
2017-Jun-22 01:30N 51°53' E 004°16'0 0.0
2017-Jun-22 01:00N 51°53' E 004°16'0 0.0
2017-Jun-22 00:30N 51°53' E 004°16'0 0.0
2017-Jun-22 00:00N 51°53' E 004°16'0 0.0
2017-Jun-21 23:30N 51°53' E 004°16'0 0.0
2017-Jun-21 23:00N 51°53' E 004°16'0 0.0
2017-Jun-21 22:30N 51°53' E 004°16'0 0.0
2017-Jun-21 22:00N 51°53' E 004°16'0 0.0
2017-Jun-21 21:30N 51°53' E 004°16'2 4.0
2017-Jun-21 21:00N 51°53' E 004°19'4 8.6
2017-Jun-21 20:30N 51°51' E 004°24'5 9.4
2017-Jun-21 20:01N 51°50' E 004°32'7871759.8
2017-Jun-21 19:34N 40°38' E 014°23'78214824.4
2017-Jun-21 19:31N 51°47' E 004°38'7822816636.6
2017-Jun-21 19:31N 40°38' E 014°23'0 0.0
2017-Jun-21 19:00N 40°38' E 014°23'781147927.5
2017-Jun-21 19:00N 51°42' E 004°29'7811586.1
2017-Jun-21 18:31N 40°38' E 014°23'781702655.7
2017-Jun-21 18:30N 51°42' E 004°29'7811565.8
2017-Jun-21 18:01N 40°38' E 014°23'0 0.0
2017-Jun-21 17:31N 40°38' E 014°23'0 0.5
2017-Jun-21 17:01N 40°38' E 014°23'1312.4
2017-Jun-21 15:56N 40°50' E 014°15'818.9
2017-Jun-21 15:30N 40°42' E 014°16'9 8.0
2017-Jun-21 14:24N 40°34' E 014°15'7853259.3
2017-Jun-21 14:10N 51°32' E 003°60'5 7.4
2017-Jun-21 13:30N 51°27' E 004°01'3 5.4
2017-Jun-21 13:00N 51°25' E 003°58'7661661.2
2017-Jun-21 12:32N 40°50' E 014°15'76422551.9
2017-Jun-21 12:30N 51°22' E 003°55'764152855.1
2017-Jun-21 12:30N 40°50' E 014°15'1020.3
2017-Jun-21 12:00N 40°40' E 014°17'774557561.2
2017-Jun-21 12:00N 51°21' E 003°50'2 3.9
2017-Jun-21 11:30N 51°19' E 003°50'4 8.3
2017-Jun-21 11:00N 51°15' E 003°49'4 8.6
2017-Jun-21 10:30N 51°10' E 003°48'4 8.4
2017-Jun-21 10:01N 51°07' E 003°45'2 3.9
2017-Jun-21 09:30N 51°06' E 003°42'0 0.0
2017-Jun-21 09:00N 51°06' E 003°42'0 0.0
2017-Jun-21 08:30N 51°06' E 003°42'7702961.0
2017-Jun-21 08:15N 40°35' E 014°16'624.5
2017-Jun-21 08:01N 40°41' E 014°17'765275547.5
2017-Jun-21 08:00N 51°06' E 003°42'0 0.0
2017-Jun-21 07:30N 51°06' E 003°42'0 0.0
2017-Jun-21 07:00N 51°06' E 003°42'0 0.0
2017-Jun-21 06:30N 51°06' E 003°42'7572272.5
2017-Jun-21 06:10N 40°50' E 014°15'7574602.5
2017-Jun-21 06:00N 51°06' E 003°42'75715659.1
2017-Jun-21 05:57N 40°50' E 014°15'7571670.6
2017-Jun-21 05:30N 51°06' E 003°42'0 0.0
2017-Jun-21 05:00N 51°06' E 003°42'0 0.0
2017-Jun-21 04:30N 51°06' E 003°42'0 0.0
2017-Jun-21 04:00N 51°06' E 003°42'0 0.0
2017-Jun-21 03:30N 51°06' E 003°42'0 0.0
2017-Jun-21 03:00N 51°06' E 003°42'0 0.0
2017-Jun-21 02:30N 51°06' E 003°42'0 0.0
2017-Jun-21 02:00N 51°06' E 003°42'0 0.0
2017-Jun-21 01:30N 51°06' E 003°42'0 0.0
2017-Jun-21 01:00N 51°06' E 003°42'0 0.0
2017-Jun-21 00:30N 51°06' E 003°42'0 0.0
2017-Jun-21 00:00N 51°06' E 003°42'0 0.0
2017-Jun-20 23:30N 51°06' E 003°42'0 0.0
2017-Jun-20 23:00N 51°06' E 003°42'0 0.0
2017-Jun-20 22:30N 51°06' E 003°42'0 0.0
2017-Jun-20 22:00N 51°06' E 003°42'7706346.5
2017-Jun-20 21:53N 40°38' E 014°23'0 0.0
2017-Jun-20 21:30N 40°38' E 014°23'77084043.3
2017-Jun-20 21:30N 51°06' E 003°42'0 0.0
2017-Jun-20 21:00N 51°06' E 003°42'770346678.5
2017-Jun-20 21:00N 40°38' E 014°23'0 0.0
2017-Jun-20 20:30N 40°38' E 014°23'770924476.2
2017-Jun-20 20:30N 51°06' E 003°42'0 0.0
2017-Jun-20 20:00N 51°06' E 003°42'770346679.2
2017-Jun-20 20:00N 40°38' E 014°23'0 0.0
2017-Jun-20 19:30N 40°38' E 014°23'770213340.9
2017-Jun-20 19:30N 51°06' E 003°42'0 0.0
2017-Jun-20 19:00N 51°06' E 003°42'77074957.5
2017-Jun-20 19:00N 40°38' E 014°23'0 0.0
2017-Jun-20 18:30N 40°38' E 014°23'770198102.2
2017-Jun-20 18:30N 51°06' E 003°42'0 0.0
2017-Jun-20 18:00N 51°06' E 003°42'770396204.1
2017-Jun-20 18:00N 40°38' E 014°23'0 0.0
2017-Jun-20 17:30N 40°38' E 014°23'7701386715.6
2017-Jun-20 17:30N 51°06' E 003°42'7701548.0
2017-Jun-20 17:01N 40°39' E 014°23'770277098.5
2017-Jun-20 17:00N 51°06' E 003°42'0 0.0
2017-Jun-20 16:30N 51°06' E 003°42'7572025.8
2017-Jun-20 16:08N 40°50' E 014°15'7576003.9
2017-Jun-20 16:00N 51°05' E 003°40'75735404.5
2017-Jun-20 15:59N 40°50' E 014°16'919.7
2017-Jun-20 15:31N 40°41' E 014°17'766250672.4
2017-Jun-20 15:30N 51°05' E 003°40'0 0.1
2017-Jun-20 15:00N 51°05' E 003°40'3 5.9
2017-Jun-20 14:30N 51°06' E 003°35'7723018.6
2017-Jun-20 14:15N 40°35' E 014°16'1519.8
2017-Jun-20 13:30N 40°50' E 014°15'75668056.6
2017-Jun-20 13:30N 50°60' E 003°32'767483.7
2017-Jun-20 11:54N 40°37' E 014°16'2 1.2
2017-Jun-20 10:26N 40°35' E 014°16'1022.9
2017-Jun-20 09:59N 40°46' E 014°17'4 2.7
2017-Jun-20 08:20N 40°50' E 014°17'927.6
2017-Jun-20 08:00N 40°41' E 014°16'6 7.9
2017-Jun-20 07:18N 40°35' E 014°16'825.3
2017-Jun-20 07:00N 40°43' E 014°17'4 2.8
2017-Jun-20 05:42N 40°46' E 014°18'9 1.4
2017-Jun-19 23:12N 40°38' E 014°23'0 0.0
2017-Jun-19 23:00N 40°38' E 014°23'0 0.0
2017-Jun-19 20:59N 40°38' E 014°23'0 0.0
2017-Jun-19 19:21N 40°38' E 014°23'0 0.0
2017-Jun-19 18:54N 40°38' E 014°23'77075.0
2017-Jun-19 08:39N 51°00' E 003°32'1 5.4
2017-Jun-19 08:30N 51°01' E 003°33'3 5.3
2017-Jun-19 08:00N 51°03' E 003°34'2 4.6
2017-Jun-19 07:30N 51°06' E 003°34'3 5.4
2017-Jun-19 07:00N 51°06' E 003°38'1 2.2
2017-Jun-19 06:28N 51°05' E 003°40'0 0.7
2017-Jun-19 06:00N 51°05' E 003°41'2 4.1
2017-Jun-19 05:30N 51°06' E 003°44'3 6.2
2017-Jun-19 05:00N 51°09' E 003°47'4 6.5
2017-Jun-19 04:27N 51°12' E 003°48'3 6.3
2017-Jun-19 03:59N 51°15' E 003°49'3 6.1
2017-Jun-19 03:30N 51°18' E 003°50'2 4.6
2017-Jun-19 03:00N 51°20' E 003°49'1 1.3
2017-Jun-19 02:30N 51°21' E 003°50'4 8.1
2017-Jun-19 02:00N 51°22' E 003°56'4 8.4
2017-Jun-19 01:30N 51°26' E 003°59'1 3.0
2017-Jun-19 01:00N 51°27' E 004°01'0 0.0
2017-Jun-18 17:49N 51°27' E 004°01'0 0.0
2017-Jun-18 17:24N 51°27' E 004°01'0 1.1
2017-Jun-18 16:58N 51°27' E 004°01'2 4.5
2017-Jun-18 16:27N 51°30' E 004°00'3 6.4
2017-Jun-18 16:00N 51°32' E 003°59'77527.9
2017-Jun-17 12:13N 40°47' E 014°17'1027.6
2017-Jun-17 11:51N 40°37' E 014°15'10 1.7
2017-Jun-17 05:42N 40°46' E 014°18'77093.8
2017-Jun-16 21:30N 51°43' E 004°37'0 0.0
2017-Jun-16 21:00N 51°43' E 004°37'3 7.1
2017-Jun-16 20:30N 51°47' E 004°38'3 6.7
2017-Jun-16 20:00N 51°50' E 004°40'4 8.0
2017-Jun-16 19:30N 51°53' E 004°37'2 4.9
2017-Jun-16 19:00N 51°54' E 004°41'7868578.3
2017-Jun-16 18:55N 40°38' E 014°23'7861925.6
2017-Jun-16 18:30N 51°55' E 004°45'3 5.9
2017-Jun-16 17:59N 51°56' E 004°50'4 6.2
2017-Jun-16 17:24N 51°57' E 004°55'772956.8
2017-Jun-16 16:36N 40°49' E 014°17'2 3.3
2017-Jun-16 15:59N 40°50' E 014°15'77028573.8
2017-Jun-16 15:58N 52°01' E 005°07'1 2.8
2017-Jun-16 15:30N 52°02' E 005°07'77936410.6
2017-Jun-16 15:29N 40°42' E 014°16'7821623.4
2017-Jun-16 15:00N 52°05' E 005°05'3 5.8
2017-Jun-16 14:30N 52°08' E 005°03'7 5.8
2017-Jun-16 13:23N 52°14' E 005°01'3 6.5
2017-Jun-16 12:59N 52°17' E 005°01'3 6.3
2017-Jun-16 12:30N 52°20' E 005°01'3 6.2
2017-Jun-16 12:00N 52°22' E 004°57'3 5.4
2017-Jun-16 11:30N 52°23' E 004°54'2 3.3
2017-Jun-16 11:00N 52°24' E 004°52'0 0.0
2017-Jun-16 10:30N 52°24' E 004°52'0 0.0
2017-Jun-16 10:00N 52°24' E 004°52'0 0.1
2017-Jun-16 09:30N 52°25' E 004°52'0 0.3
2017-Jun-16 09:00N 52°24' E 004°52'0 0.1
2017-Jun-16 08:30N 52°24' E 004°52'0 0.0
2017-Jun-16 08:00N 52°24' E 004°52'0 0.0
2017-Jun-16 07:30N 52°24' E 004°52'0 0.0
2017-Jun-16 07:00N 52°24' E 004°52'0 0.0
2017-Jun-16 06:30N 52°24' E 004°52'0 0.0
2017-Jun-16 06:00N 52°24' E 004°52'8002333.6
2017-Jun-16 05:40N 40°46' E 014°18'8005188.5
2017-Jun-16 05:30N 52°24' E 004°52'0 0.0
2017-Jun-16 05:00N 52°24' E 004°52'0 0.0
2017-Jun-16 04:30N 52°24' E 004°52'0 0.0
2017-Jun-16 04:00N 52°24' E 004°52'0 0.0
2017-Jun-16 03:30N 52°24' E 004°52'0 0.0
2017-Jun-16 03:00N 52°24' E 004°52'0 0.0
2017-Jun-16 02:30N 52°24' E 004°52'0 0.0
2017-Jun-16 02:00N 52°24' E 004°52'0 0.0
2017-Jun-16 01:30N 52°24' E 004°52'0 0.0
2017-Jun-16 01:00N 52°24' E 004°52'0 0.0
2017-Jun-16 00:30N 52°24' E 004°52'0 0.0
2017-Jun-16 00:00N 52°24' E 004°52'0 0.0
2017-Jun-15 23:30N 52°24' E 004°52'80916261.1
2017-Jun-15 23:27N 40°38' E 014°23'0 0.0
2017-Jun-15 23:00N 40°38' E 014°23'8091455371.5
2017-Jun-15 23:00N 52°24' E 004°52'0 0.0
2017-Jun-15 22:30N 52°24' E 004°52'8096630.4
2017-Jun-15 22:23N 40°38' E 014°23'0 0.0
2017-Jun-15 22:00N 40°38' E 014°23'809242561.7
2017-Jun-15 22:00N 52°24' E 004°52'8091627.9
2017-Jun-15 21:30N 40°38' E 014°23'809242562.0
2017-Jun-15 21:30N 52°24' E 004°52'8091627.9
2017-Jun-15 21:00N 40°38' E 014°23'809132306.6
2017-Jun-15 21:00N 52°24' E 004°52'8091637.1
2017-Jun-15 20:30N 40°38' E 014°23'8091455371.5
2017-Jun-15 20:30N 52°24' E 004°52'8091618.9
2017-Jun-15 20:00N 40°38' E 014°23'809264613.1
2017-Jun-15 20:00N 52°24' E 004°52'8091626.1
2017-Jun-15 19:30N 40°38' E 014°23'809264613.0
2017-Jun-15 19:30N 52°24' E 004°52'8091627.9
2017-Jun-15 19:00N 40°38' E 014°23'809264603.1
2017-Jun-15 19:00N 52°24' E 004°52'8091626.1
2017-Jun-15 18:30N 40°38' E 014°23'8062901264.3
2017-Jun-15 18:30N 52°23' E 004°55'4 7.7
2017-Jun-15 18:00N 52°20' E 005°00'4 8.3
2017-Jun-15 17:30N 52°16' E 005°01'7961275.9
2017-Jun-15 16:53N 40°41' E 014°22'1028.1
2017-Jun-15 16:31N 40°50' E 014°16'7774577.7
2017-Jun-15 16:20N 52°07' E 005°04'3 8.0
2017-Jun-15 16:00N 52°05' E 005°05'77456857.4
2017-Jun-15 15:59N 40°50' E 014°15'815.7
2017-Jun-15 15:31N 40°43' E 014°17'777699534.7
2017-Jun-15 15:30N 52°01' E 005°07'1 2.5
2017-Jun-15 14:55N 51°60' E 005°05'6 7.0
2017-Jun-15 14:00N 51°57' E 004°56'4 7.5
2017-Jun-15 13:30N 51°56' E 004°50'7722405.7
2017-Jun-15 13:11N 40°50' E 014°15'7724432.6
2017-Jun-15 13:00N 51°54' E 004°44'77216065.2
2017-Jun-15 12:57N 40°50' E 014°15'0 0.1
2017-Jun-15 12:30N 40°50' E 014°15'77157844.8
2017-Jun-15 12:30N 51°51' E 004°39'7811607.2
2017-Jun-15 12:00N 40°40' E 014°16'7801403132.6
2017-Jun-15 12:00N 51°50' E 004°40'611.7
2017-Jun-15 11:30N 51°44' E 004°38'  

Dump ship's entire track history